Terminal Aerodrome Forecast
Issued by NWS

Home | Current Version | Previous Version | Text Only | Print | Product List | Glossary On
Versions: 1 2 3 4 5 6 7 8 9 10 11 12 13 14 15 16 17 18 19 20 21 22 23 24 25 26
000
FTUS46 KLOX 190800 AAA
TAFLAX
TAF AMD
KLAX 190855Z 1909/2012 25007KT P6SM FEW015
     FM191030 VRB03KT 6SM BR OVC007
     FM191600 VRB03KT 6SM BR OVC012
     FM191800 25006KT 6SM HZ SCT012
     FM192000 25012KT P6SM SCT250
     FM200400 VRB03KT P6SM SCT009
     FM200700 VRB03KT 6SM BR BKN012=

USA.gov is the U.S. government's official web portal to all federal, state and local government web resources and services.